Time;durP1;ratioP1;P1;durP2;ratioP2;P2;SDS_P1;SDS_P2;PMS_P1;PMS_P2;Temp;Humidity;BMP_temperature;BMP_pressure;BME280_temperature;BME280_humidity;BME280_pressure;Samples;Min_cycle;Max_cycle;Signal;HPM_P1;HPM_P2
2021/11/04 00:02:06;;;;;;;35.50;19.35;;;;;;;;;;6179107;23;20073;-63
2021/11/04 00:04:32;;;;;;;35.38;19.90;;;;;;;;;;6180788;23;20051;-63
2021/11/04 00:06:57;;;;;;;35.13;18.58;;;;;;;;;;6182302;23;20013;-63
2021/11/04 00:09:23;;;;;;;34.90;19.30;;;;;;;;;;6181443;23;20076;-63
2021/11/04 00:11:48;;;;;;;32.40;18.95;;;;;;;;;;6154204;23;20008;-63
2021/11/04 00:14:14;;;;;;;31.40;18.13;;;;;;;;;;6179046;23;20088;-63
2021/11/04 00:16:39;;;;;;;34.72;18.85;;;;;;;;;;6179944;23;20001;-63
2021/11/04 00:19:05;;;;;;;33.53;18.67;;;;;;;;;;6177063;23;20005;-63
2021/11/04 00:21:31;;;;;;;35.05;18.85;;;;;;;;;;6182416;23;20005;-63
2021/11/04 00:23:56;;;;;;;36.13;19.00;;;;;;;;;;6181828;23;20310;-63
2021/11/04 00:26:21;;;;;;;37.38;19.27;;;;;;;;;;6182206;23;20005;-63
2021/11/04 00:28:48;;;;;;;35.88;19.30;;;;;;;;;;6177746;23;20005;-63
2021/11/04 00:31:13;;;;;;;35.93;19.67;;;;;;;;;;6180023;23;20339;-63
2021/11/04 00:33:39;;;;;;;36.33;19.00;;;;;;;;;;6154668;23;20032;-63
2021/11/04 00:36:05;;;;;;;33.90;18.38;;;;;;;;;;6183145;23;20075;-63
2021/11/04 00:38:31;;;;;;;34.22;17.75;;;;;;;;;;6180315;23;20004;-63
2021/11/04 00:40:56;;;;;;;30.73;18.05;;;;;;;;;;6156167;23;20012;-63
2021/11/04 00:43:23;;;;;;;34.65;18.33;;;;;;;;;;6180511;23;20127;-63
2021/11/04 00:45:48;;;;;;;34.53;18.30;;;;;;;;;;6181089;23;20020;-63
2021/11/04 00:48:14;;;;;;;32.17;17.67;;;;;;;;;;6177291;23;20009;-63
2021/11/04 00:50:39;;;;;;;33.72;18.17;;;;;;;;;;6177847;23;20004;-63
2021/11/04 00:53:05;;;;;;;35.85;18.98;;;;;;;;;;6181358;23;20472;-63
2021/11/04 00:55:30;;;;;;;30.67;17.20;;;;;;;;;;6153825;23;20339;-63
2021/11/04 00:57:55;;;;;;;28.58;15.55;;;;;;;;;;6181239;23;20113;-63
2021/11/04 01:00:21;;;;;;;33.05;16.90;;;;;;;;;;6179304;23;20504;-63
2021/11/04 01:02:46;;;;;;;29.23;16.75;;;;;;;;;;6179405;23;20376;-63
2021/11/04 01:05:12;;;;;;;29.38;16.40;;;;;;;;;;6181649;23;20031;-63
2021/11/04 01:07:37;;;;;;;28.33;16.08;;;;;;;;;;6183078;23;20022;-63
2021/11/04 01:10:05;;;;;;;27.85;16.00;;;;;;;;;;6181205;23;20004;-63
2021/11/04 01:12:30;;;;;;;28.23;16.23;;;;;;;;;;6155698;23;20001;-63
2021/11/04 01:14:56;;;;;;;27.33;15.40;;;;;;;;;;6180699;23;20387;-63
2021/11/04 01:17:21;;;;;;;27.20;16.15;;;;;;;;;;6179288;23;20016;-63
2021/11/04 01:19:47;;;;;;;29.40;16.35;;;;;;;;;;6180878;23;20016;-63
2021/11/04 01:22:12;;;;;;;27.70;15.65;;;;;;;;;;6154659;23;20001;-63
2021/11/04 01:24:38;;;;;;;28.98;15.50;;;;;;;;;;6180130;23;20005;-63
2021/11/04 01:27:03;;;;;;;30.90;16.13;;;;;;;;;;6179966;23;20005;-63
2021/11/04 01:29:29;;;;;;;31.40;17.40;;;;;;;;;;6180043;23;20508;-63
2021/11/04 01:31:54;;;;;;;26.63;15.70;;;;;;;;;;6181926;23;20017;-63
2021/11/04 01:34:21;;;;;;;31.02;17.48;;;;;;;;;;6183057;23;20460;-63
2021/11/04 01:36:46;;;;;;;31.45;16.67;;;;;;;;;;6184714;23;20009;-63
2021/11/04 01:39:12;;;;;;;31.48;18.20;;;;;;;;;;6177484;23;20055;-63
2021/11/04 01:41:37;;;;;;;32.65;17.48;;;;;;;;;;6155930;23;20009;-63
2021/11/04 01:44:03;;;;;;;35.25;18.80;;;;;;;;;;6182033;23;20008;-63
2021/11/04 01:46:29;;;;;;;34.83;18.83;;;;;;;;;;6183958;23;20001;-63
2021/11/04 01:48:54;;;;;;;35.80;18.98;;;;;;;;;;6156388;23;20012;-63
2021/11/04 01:51:22;;;;;;;37.17;19.08;;;;;;;;;;6182941;23;20004;-63
2021/11/04 01:53:48;;;;;;;35.25;18.70;;;;;;;;;;6182941;23;20036;-63
2021/11/04 01:56:13;;;;;;;37.05;19.88;;;;;;;;;;6180686;23;20343;-63
2021/11/04 01:58:39;;;;;;;37.55;18.70;;;;;;;;;;6154249;23;20071;-63
2021/11/04 02:01:05;;;;;;;36.00;19.25;;;;;;;;;;6180752;23;20009;-63
2021/11/04 02:03:57;;;;;;;38.75;20.08;;;;;;;;;;6182570;23;20009;-62
2021/11/04 02:06:41;;;;;;;38.65;19.40;;;;;;;;;;6183541;23;20027;-63
2021/11/04 02:09:10;;;;;;;35.90;19.13;;;;;;;;;;6157081;23;20495;-62
2021/11/04 02:11:50;;;;;;;36.45;19.55;;;;;;;;;;6182788;23;20005;-63
2021/11/04 02:14:23;;;;;;;35.92;19.52;;;;;;;;;;6182451;23;20446;-63
2021/11/04 02:16:50;;;;;;;42.90;19.83;;;;;;;;;;6183252;23;20028;-63
2021/11/04 02:19:35;;;;;;;36.10;18.73;;;;;;;;;;6182511;23;20067;-63
2021/11/04 02:22:04;;;;;;;38.13;18.98;;;;;;;;;;6156378;23;20009;-63
2021/11/04 02:24:57;;;;;;;37.67;18.98;;;;;;;;;;6181128;23;20005;-63
2021/11/04 02:27:22;;;;;;;38.53;20.80;;;;;;;;;;6180999;23;20033;-63
2021/11/04 02:29:48;;;;;;;34.47;19.08;;;;;;;;;;6180973;23;20475;-63
2021/11/04 02:32:13;;;;;;;33.67;18.15;;;;;;;;;;6181323;23;20044;-63
2021/11/04 02:34:41;;;;;;;32.33;18.90;;;;;;;;;;6183536;23;20009;-63
2021/11/04 02:37:08;;;;;;;31.73;17.92;;;;;;;;;;6183908;23;20008;-63
2021/11/04 02:39:34;;;;;;;32.85;17.95;;;;;;;;;;6183007;23;20009;-63
2021/11/04 02:42:01;;;;;;;33.40;17.98;;;;;;;;;;6181871;23;20058;-63
2021/11/04 02:44:27;;;;;;;34.85;19.75;;;;;;;;;;6180222;23;20005;-63
2021/11/04 02:46:56;;;;;;;35.55;18.60;;;;;;;;;;6183606;23;20004;-62
2021/11/04 02:49:26;;;;;;;37.30;19.08;;;;;;;;;;6182622;23;20020;-62
2021/11/04 02:51:51;;;;;;;38.47;20.02;;;;;;;;;;6182099;23;20008;-63
2021/11/04 02:54:17;;;;;;;41.65;21.55;;;;;;;;;;6180594;23;20005;-63
2021/11/04 02:56:48;;;;;;;41.40;21.33;;;;;;;;;;6183327;23;20001;-63
2021/11/04 02:59:22;;;;;;;45.83;22.88;;;;;;;;;;6153394;23;20005;-62
2021/11/04 03:01:50;;;;;;;45.00;22.60;;;;;;;;;;6180962;23;20008;-63
2021/11/04 03:04:17;;;;;;;45.35;22.55;;;;;;;;;;6182168;23;20058;-62
2021/11/04 03:06:43;;;;;;;48.10;24.13;;;;;;;;;;6183437;23;20012;-62
2021/11/04 03:09:10;;;;;;;47.80;24.30;;;;;;;;;;6155942;23;20009;-62
2021/11/04 03:11:36;;;;;;;50.65;24.08;;;;;;;;;;6181100;23;20011;-62
2021/11/04 03:14:02;;;;;;;50.42;23.75;;;;;;;;;;6182059;23;20012;-62
2021/11/04 03:16:33;;;;;;;47.55;23.88;;;;;;;;;;6183745;23;20005;-62
2021/11/04 03:19:00;;;;;;;52.45;25.10;;;;;;;;;;6179051;23;20005;-62
2021/11/04 03:21:29;;;;;;;52.75;23.30;;;;;;;;;;6182261;23;20449;-62
2021/11/04 03:23:55;;;;;;;42.85;22.63;;;;;;;;;;6181505;23;20005;-62
2021/11/04 03:26:23;;;;;;;44.92;22.33;;;;;;;;;;6181141;23;20012;-63
2021/11/04 03:28:49;;;;;;;45.05;22.63;;;;;;;;;;6180620;23;20005;-63
2021/11/04 03:31:15;;;;;;;44.85;23.08;;;;;;;;;;6180439;23;20009;-63
2021/11/04 03:33:41;;;;;;;44.75;23.33;;;;;;;;;;6178155;23;20032;-62
2021/11/04 03:36:07;;;;;;;43.72;22.55;;;;;;;;;;6182761;23;20105;-62
2021/11/04 03:38:33;;;;;;;43.38;21.38;;;;;;;;;;6182381;23;20067;-62
2021/11/04 03:41:00;;;;;;;40.63;20.58;;;;;;;;;;6182957;23;20005;-63
2021/11/04 03:43:27;;;;;;;46.00;21.77;;;;;;;;;;6181372;23;20407;-63
2021/11/04 03:45:53;;;;;;;39.47;21.77;;;;;;;;;;6156632;23;20009;-63
2021/11/04 03:48:19;;;;;;;39.85;21.30;;;;;;;;;;6181516;23;20009;-62
2021/11/04 03:50:46;;;;;;;38.67;20.77;;;;;;;;;;6182780;23;20001;-63
2021/11/04 03:53:14;;;;;;;42.58;22.40;;;;;;;;;;6155784;23;20228;-62
2021/11/04 03:55:40;;;;;;;46.13;22.40;;;;;;;;;;6181367;23;20001;-63
2021/11/04 03:58:08;;;;;;;44.00;22.38;;;;;;;;;;6181587;23;20005;-63
2021/11/04 04:00:33;;;;;;;45.75;21.85;;;;;;;;;;6177383;23;20350;-63
2021/11/04 04:03:00;;;;;;;41.58;21.90;;;;;;;;;;6181418;23;20005;-62
2021/11/04 04:05:32;;;;;;;47.70;23.92;;;;;;;;;;6179183;23;20009;-63
2021/11/04 04:07:58;;;;;;;45.33;22.60;;;;;;;;;;6183281;23;20011;-62
2021/11/04 04:10:25;;;;;;;42.13;22.05;;;;;;;;;;6183197;23;20068;-63
2021/11/04 04:12:51;;;;;;;43.90;21.92;;;;;;;;;;6181731;23;20338;-62
2021/11/04 04:15:18;;;;;;;50.35;23.98;;;;;;;;;;6180622;23;20029;-62
2021/11/04 04:17:43;;;;;;;46.83;22.88;;;;;;;;;;6182269;23;20012;-63
2021/11/04 04:20:09;;;;;;;49.10;24.63;;;;;;;;;;6156423;23;20083;-62
2021/11/04 04:22:35;;;;;;;48.47;24.13;;;;;;;;;;6156386;23;20410;-62
2021/11/04 04:25:01;;;;;;;51.85;24.30;;;;;;;;;;6155784;23;20012;-63
2021/11/04 04:27:26;;;;;;;55.58;25.17;;;;;;;;;;6182176;23;20008;-62
2021/11/04 04:29:51;;;;;;;49.65;23.95;;;;;;;;;;6181217;23;19997;-62
2021/11/04 04:32:17;;;;;;;55.97;26.33;;;;;;;;;;6180829;23;20123;-62
2021/11/04 04:34:42;;;;;;;54.80;25.15;;;;;;;;;;6182916;23;20536;-62
2021/11/04 04:37:08;;;;;;;52.10;24.88;;;;;;;;;;6179553;23;20044;-62
2021/11/04 04:39:34;;;;;;;54.42;26.65;;;;;;;;;;6181859;23;20411;-62
2021/11/04 04:42:00;;;;;;;54.33;25.95;;;;;;;;;;6179470;23;20029;-62
2021/11/04 04:44:27;;;;;;;58.10;26.83;;;;;;;;;;6181780;23;20059;-62
2021/11/04 04:46:52;;;;;;;59.70;26.80;;;;;;;;;;6183390;23;20001;-62
2021/11/04 04:49:18;;;;;;;55.80;26.17;;;;;;;;;;6179528;23;20000;-62
2021/11/04 04:51:43;;;;;;;57.28;26.38;;;;;;;;;;6181338;23;20531;-62
2021/11/04 04:54:08;;;;;;;65.50;28.33;;;;;;;;;;6181178;23;20029;-62
2021/11/04 04:56:34;;;;;;;56.25;27.50;;;;;;;;;;6182037;23;20043;-62
2021/11/04 04:59:00;;;;;;;56.72;26.15;;;;;;;;;;6180770;23;20032;-63
2021/11/04 05:01:26;;;;;;;54.80;26.02;;;;;;;;;;6179764;23;20060;-62
2021/11/04 05:03:51;;;;;;;59.08;26.27;;;;;;;;;;6178788;23;20005;-62
2021/11/04 05:06:17;;;;;;;52.45;25.52;;;;;;;;;;6181845;23;20059;-62
2021/11/04 05:08:42;;;;;;;53.90;25.90;;;;;;;;;;6181835;23;20080;-62
2021/11/04 05:11:09;;;;;;;59.28;27.00;;;;;;;;;;6182339;23;20005;-62
2021/11/04 05:13:34;;;;;;;57.42;27.30;;;;;;;;;;6157094;23;20052;-62
2021/11/04 05:16:00;;;;;;;55.35;26.63;;;;;;;;;;6183483;23;20423;-62
2021/11/04 05:18:25;;;;;;;59.35;27.02;;;;;;;;;;6154201;23;20095;-62
2021/11/04 05:20:50;;;;;;;60.83;27.45;;;;;;;;;;6180670;23;20089;-62
2021/11/04 05:23:16;;;;;;;57.40;26.13;;;;;;;;;;6180217;23;20008;-62
2021/11/04 05:25:41;;;;;;;57.85;27.60;;;;;;;;;;6183647;23;20076;-65
2021/11/04 05:28:07;;;;;;;56.47;26.65;;;;;;;;;;6182420;23;20001;-62
2021/11/04 05:30:33;;;;;;;58.05;26.58;;;;;;;;;;6181829;23;20028;-62
2021/11/04 05:32:58;;;;;;;59.83;26.90;;;;;;;;;;6182977;23;20354;-62
2021/11/04 05:35:24;;;;;;;59.75;26.02;;;;;;;;;;6156406;23;20017;-63
2021/11/04 05:37:49;;;;;;;59.65;26.90;;;;;;;;;;6182146;23;20001;-62
2021/11/04 05:40:15;;;;;;;56.80;26.95;;;;;;;;;;6154737;23;20001;-63
2021/11/04 05:42:41;;;;;;;57.45;26.15;;;;;;;;;;6179883;23;20004;-62
2021/11/04 05:45:07;;;;;;;65.80;27.07;;;;;;;;;;6182946;23;20001;-63
2021/11/04 05:47:33;;;;;;;62.42;26.83;;;;;;;;;;6156183;23;20008;-62
2021/11/04 05:49:58;;;;;;;67.38;27.15;;;;;;;;;;6183212;23;20012;-62
2021/11/04 05:52:24;;;;;;;62.92;27.48;;;;;;;;;;6151589;23;20102;-62
2021/11/04 05:54:53;;;;;;;60.95;25.48;;;;;;;;;;6178653;23;20005;-63
2021/11/04 05:57:18;;;;;;;65.68;27.48;;;;;;;;;;6177484;23;20464;-63
2021/11/04 05:59:44;;;;;;;68.53;27.98;;;;;;;;;;6152045;23;20013;-63
2021/11/04 06:02:09;;;;;;;72.80;30.17;;;;;;;;;;6181279;23;20012;-63
2021/11/04 06:04:36;;;;;;;74.68;28.85;;;;;;;;;;6180949;23;20001;-63
2021/11/04 06:07:05;;;;;;;73.30;29.17;;;;;;;;;;6181129;23;20076;-63
2021/11/04 06:09:31;;;;;;;66.90;26.92;;;;;;;;;;6153856;23;20060;-63
2021/11/04 06:11:57;;;;;;;65.38;28.20;;;;;;;;;;6183942;23;20008;-63
2021/11/04 06:14:24;;;;;;;55.65;24.30;;;;;;;;;;6151689;23;20017;-63
2021/11/04 06:16:49;;;;;;;58.53;24.98;;;;;;;;;;6179322;23;20068;-62
2021/11/04 06:19:15;;;;;;;64.60;26.95;;;;;;;;;;6155745;23;20001;-63
2021/11/04 06:21:40;;;;;;;59.50;25.58;;;;;;;;;;6183151;23;20011;-63
2021/11/04 06:24:05;;;;;;;60.13;25.33;;;;;;;;;;6182479;23;20001;-63
2021/11/04 06:26:31;;;;;;;66.93;27.55;;;;;;;;;;6183109;23;20056;-63
2021/11/04 06:28:56;;;;;;;57.67;26.38;;;;;;;;;;6181052;23;20005;-63
2021/11/04 06:31:21;;;;;;;58.83;24.98;;;;;;;;;;6182805;23;20072;-63
2021/11/04 06:33:47;;;;;;;57.13;24.50;;;;;;;;;;6182633;23;20001;-63
2021/11/04 06:36:12;;;;;;;54.35;25.08;;;;;;;;;;6181785;23;20005;-63
2021/11/04 06:38:38;;;;;;;56.72;24.73;;;;;;;;;;6151857;23;20012;-63
2021/11/04 06:41:03;;;;;;;54.15;24.58;;;;;;;;;;6179437;23;20315;-63
2021/11/04 06:43:29;;;;;;;60.75;25.10;;;;;;;;;;6154313;23;20139;-63
2021/11/04 06:45:56;;;;;;;59.90;25.40;;;;;;;;;;6178270;23;20361;-63
2021/11/04 06:48:36;;;;;;;59.13;25.13;;;;;;;;;;6181032;23;20470;-63
2021/11/04 06:51:03;;;;;;;53.80;23.25;;;;;;;;;;6157685;23;20001;-63
2021/11/04 06:53:29;;;;;;;52.70;23.83;;;;;;;;;;6182856;23;20027;-63
2021/11/04 06:56:01;;;;;;;49.97;21.90;;;;;;;;;;6183580;23;20005;-62
2021/11/04 06:58:30;;;;;;;55.10;24.20;;;;;;;;;;6180783;23;20001;-63
2021/11/04 07:00:58;;;;;;;58.20;24.15;;;;;;;;;;6180966;23;20505;-63
2021/11/04 07:03:27;;;;;;;52.33;22.17;;;;;;;;;;6156676;23;20012;-63
2021/11/04 07:06:00;;;;;;;52.63;23.92;;;;;;;;;;6156270;23;20012;-64
2021/11/04 07:08:27;;;;;;;54.47;23.33;;;;;;;;;;6182729;23;20001;-64
2021/11/04 07:11:01;;;;;;;;;;;;;;;;;;6180608;23;20330;-64
2021/11/04 07:13:28;;;;;;;46.75;20.00;;;;;;;;;;6183649;23;19911;-64
2021/11/04 07:15:56;;;;;;;50.88;22.52;;;;;;;;;;6181576;23;20478;-64
2021/11/04 07:18:22;;;;;;;53.78;22.27;;;;;;;;;;6179378;23;20001;-64
2021/11/04 07:21:00;;;;;;;51.17;22.05;;;;;;;;;;6182134;23;20012;-64
2021/11/04 07:24:05;;;;;;;46.20;22.00;;;;;;;;;;6183433;23;20011;-64
2021/11/04 07:26:40;;;;;;;57.47;22.67;;;;;;;;;;6156563;23;20024;-64
2021/11/04 07:29:08;;;;;;;49.05;21.48;;;;;;;;;;6178450;23;20088;-64
2021/11/04 07:31:42;;;;;;;48.10;20.77;;;;;;;;;;6181102;23;20067;-64
2021/11/04 07:34:10;;;;;;;48.83;21.25;;;;;;;;;;6156616;23;20091;-64
2021/11/04 07:36:39;;;;;;;48.10;21.48;;;;;;;;;;6155720;23;20055;-64
2021/11/04 07:39:06;;;;;;;45.40;20.25;;;;;;;;;;6155336;23;20040;-64
2021/11/04 07:41:34;;;;;;;53.92;23.08;;;;;;;;;;6181399;23;20077;-64
2021/11/04 07:44:00;;;;;;;55.08;23.17;;;;;;;;;;6178143;23;20059;-64
2021/11/04 07:46:27;;;;;;;54.65;22.05;;;;;;;;;;6179651;23;20080;-63
2021/11/04 07:48:53;;;;;;;51.83;20.95;;;;;;;;;;6180750;23;20339;-63
2021/11/04 07:51:18;;;;;;;48.75;21.42;;;;;;;;;;6182844;23;20005;-63
2021/11/04 07:53:44;;;;;;;47.65;19.85;;;;;;;;;;6182665;23;20427;-63
2021/11/04 07:56:11;;;;;;;49.58;21.17;;;;;;;;;;6182250;23;20023;-63
2021/11/04 07:58:37;;;;;;;49.35;20.25;;;;;;;;;;6182006;23;20005;-63
2021/11/04 08:01:02;;;;;;;44.95;19.17;;;;;;;;;;6180190;23;20020;-63
2021/11/04 08:03:28;;;;;;;43.22;18.48;;;;;;;;;;6181622;23;20005;-63
2021/11/04 08:05:54;;;;;;;44.80;17.48;;;;;;;;;;6182033;23;20007;-63
2021/11/04 08:08:19;;;;;;;42.33;17.85;;;;;;;;;;6180245;23;20059;-62
2021/11/04 08:10:45;;;;;;;42.22;16.58;;;;;;;;;;6179140;23;20043;-62
2021/11/04 08:13:13;;;;;;;38.10;17.17;;;;;;;;;;6178524;23;20001;-63
2021/11/04 08:15:40;;;;;;;35.88;15.60;;;;;;;;;;6179916;23;20437;-63
2021/11/04 08:18:09;;;;;;;31.77;14.90;;;;;;;;;;6180905;23;20005;-63
2021/11/04 08:20:35;;;;;;;33.85;14.93;;;;;;;;;;6180982;23;20004;-63
2021/11/04 08:23:02;;;;;;;42.10;17.33;;;;;;;;;;6179404;23;20385;-62
2021/11/04 08:25:28;;;;;;;40.10;17.38;;;;;;;;;;6178011;23;20015;-63
2021/11/04 08:27:53;;;;;;;40.40;18.25;;;;;;;;;;6177511;23;20076;-63
2021/11/04 08:30:21;;;;;;;42.97;18.48;;;;;;;;;;6180786;23;20001;-64
2021/11/04 08:32:47;;;;;;;43.55;17.67;;;;;;;;;;6176408;23;20027;-64
2021/11/04 08:35:12;;;;;;;40.92;17.15;;;;;;;;;;6177759;23;20009;-63
2021/11/04 08:37:38;;;;;;;39.78;17.70;;;;;;;;;;6179948;23;20009;-64
2021/11/04 08:40:07;;;;;;;42.85;18.83;;;;;;;;;;6178373;23;20005;-64
2021/11/04 08:42:33;;;;;;;36.10;16.67;;;;;;;;;;6177661;23;20407;-63
2021/11/04 08:44:59;;;;;;;41.55;17.38;;;;;;;;;;6152257;23;20037;-64
2021/11/04 08:47:26;;;;;;;36.17;17.23;;;;;;;;;;6180758;23;20020;-64
2021/11/04 08:49:53;;;;;;;38.30;16.38;;;;;;;;;;6154004;23;20009;-64
2021/11/04 08:52:21;;;;;;;33.97;16.65;;;;;;;;;;6149099;23;20005;-63
2021/11/04 08:54:47;;;;;;;39.80;16.15;;;;;;;;;;6176219;23;20005;-64
2021/11/04 08:57:13;;;;;;;36.95;14.90;;;;;;;;;;6176045;23;20005;-63
2021/11/04 08:59:41;;;;;;;33.60;15.70;;;;;;;;;;6175200;23;20005;-63
2021/11/04 09:02:11;;;;;;;33.08;15.13;;;;;;;;;;6176542;23;20025;-63
2021/11/04 09:04:38;;;;;;;36.05;16.48;;;;;;;;;;6178106;23;20327;-63
2021/11/04 09:07:04;;;;;;;;;;;;;;;;;;6179499;23;20017;-63
2021/11/04 09:09:30;;;;;;;35.45;15.82;;;;;;;;;;6175837;23;19969;-63
2021/11/04 09:11:56;;;;;;;40.72;17.33;;;;;;;;;;6175358;23;20087;-64
2021/11/04 09:14:22;;;;;;;43.17;18.08;;;;;;;;;;6169555;23;20016;-63
2021/11/04 09:16:47;;;;;;;43.08;18.08;;;;;;;;;;6175678;23;20554;-63
2021/11/04 09:19:13;;;;;;;34.88;16.10;;;;;;;;;;6172340;23;20706;-63
2021/11/04 09:21:38;;;;;;;46.13;19.60;;;;;;;;;;6174695;23;20013;-63
2021/11/04 09:24:04;;;;;;;40.38;17.52;;;;;;;;;;6176863;23;20016;-63
2021/11/04 09:26:30;;;;;;;41.00;18.33;;;;;;;;;;6175228;23;20009;-63
2021/11/04 09:28:55;;;;;;;41.22;18.20;;;;;;;;;;6171217;23;20004;-64
2021/11/04 09:31:21;;;;;;;38.55;17.52;;;;;;;;;;6146519;23;20005;-63
2021/11/04 09:33:46;;;;;;;38.75;18.50;;;;;;;;;;6171228;23;20749;-64
2021/11/04 09:36:12;;;;;;;39.20;17.30;;;;;;;;;;6172099;23;20009;-63
2021/11/04 09:38:37;;;;;;;42.97;18.13;;;;;;;;;;6175561;23;20076;-63
2021/11/04 09:41:03;;;;;;;41.45;17.67;;;;;;;;;;6174133;23;20538;-63
2021/11/04 09:43:32;;;;;;;36.45;16.77;;;;;;;;;;6173527;23;20103;-63
2021/11/04 09:46:00;;;;;;;40.13;18.10;;;;;;;;;;6170743;23;20012;-63
2021/11/04 09:48:25;;;;;;;38.53;17.42;;;;;;;;;;6173107;23;20001;-64
2021/11/04 09:50:51;;;;;;;37.33;17.88;;;;;;;;;;6175186;23;20056;-63
2021/11/04 09:53:16;;;;;;;40.63;18.08;;;;;;;;;;6175755;23;20005;-63
2021/11/04 09:55:42;;;;;;;42.63;18.00;;;;;;;;;;6176891;23;20005;-63
2021/11/04 09:58:07;;;;;;;37.22;17.60;;;;;;;;;;6171496;23;20008;-63
2021/11/04 10:00:39;;;;;;;45.33;18.20;;;;;;;;;;6146210;23;20358;-64
2021/11/04 10:03:10;;;;;;;39.30;18.00;;;;;;;;;;6174319;23;20745;-63
2021/11/04 10:05:42;;;;;;;42.60;18.15;;;;;;;;;;6177548;23;20476;-64
2021/11/04 10:08:09;;;;;;;38.38;17.73;;;;;;;;;;6152751;23;20013;-64
2021/11/04 10:10:36;;;;;;;36.55;17.02;;;;;;;;;;6178531;23;20079;-64
2021/11/04 10:13:07;;;;;;;39.37;17.60;;;;;;;;;;6176106;23;20042;-63
2021/11/04 10:15:36;;;;;;;35.78;17.35;;;;;;;;;;6176671;23;20109;-63
2021/11/04 10:18:16;;;;;;;36.17;16.50;;;;;;;;;;6176664;23;20016;-64
2021/11/04 10:20:53;;;;;;;35.72;16.80;;;;;;;;;;6178265;23;20009;-64
2021/11/04 10:23:19;;;;;;;38.15;18.20;;;;;;;;;;6151638;23;20000;-63
2021/11/04 10:25:46;;;;;;;40.22;17.83;;;;;;;;;;6179158;23;20604;-64
2021/11/04 10:28:29;;;;;;;37.40;16.38;;;;;;;;;;6177845;23;20015;-64
2021/11/04 10:30:56;;;;;;;39.75;17.27;;;;;;;;;;6176311;23;20924;-64
2021/11/04 10:33:29;;;;;;;37.90;17.25;;;;;;;;;;6175892;23;20013;-64
2021/11/04 10:36:07;;;;;;;36.08;16.02;;;;;;;;;;6177482;23;20419;-64
2021/11/04 10:38:44;;;;;;;36.88;16.88;;;;;;;;;;6148863;23;20009;-64
2021/11/04 10:41:11;;;;;;;;;;;;;;;;;;6177330;23;20083;-64
2021/11/04 10:43:38;;;;;;;37.15;17.00;;;;;;;;;;6177911;23;19908;-64
2021/11/04 10:46:12;;;;;;;36.85;16.98;;;;;;;;;;6174932;23;20032;-64
2021/11/04 10:48:45;;;;;;;32.35;14.90;;;;;;;;;;6176484;23;20004;-64
2021/11/04 10:51:15;;;;;;;35.35;15.63;;;;;;;;;;6150182;23;20000;-64
2021/11/04 10:53:41;;;;;;;36.03;16.33;;;;;;;;;;6172500;23;20065;-64
2021/11/04 10:56:18;;;;;;;38.22;16.58;;;;;;;;;;6178612;23;20039;-64
2021/11/04 10:58:52;;;;;;;32.55;15.40;;;;;;;;;;6178386;23;20009;-64
2021/11/04 11:01:31;;;;;;;34.97;15.95;;;;;;;;;;6177015;23;20001;-64
2021/11/04 11:04:02;;;;;;;32.78;15.23;;;;;;;;;;6151253;23;20005;-64
2021/11/04 11:06:29;;;;;;;33.97;15.90;;;;;;;;;;6150674;23;20504;-64
2021/11/04 11:08:58;;;;;;;35.50;15.77;;;;;;;;;;6178333;23;20016;-64
2021/11/04 11:11:24;;;;;;;35.33;15.43;;;;;;;;;;6174693;23;20243;-64
2021/11/04 11:13:50;;;;;;;31.52;15.10;;;;;;;;;;6174413;23;20410;-64
2021/11/04 11:16:17;;;;;;;32.17;15.82;;;;;;;;;;6177584;23;20009;-64
2021/11/04 11:18:42;;;;;;;36.03;15.63;;;;;;;;;;6177400;23;20023;-64
2021/11/04 11:21:08;;;;;;;29.00;13.65;;;;;;;;;;6178616;23;20007;-64
2021/11/04 11:23:34;;;;;;;30.25;13.80;;;;;;;;;;6178211;23;20017;-63
2021/11/04 11:26:02;;;;;;;30.63;14.48;;;;;;;;;;6178279;23;20089;-63
2021/11/04 11:28:38;;;;;;;27.20;14.18;;;;;;;;;;6177378;23;20427;-64
2021/11/04 11:31:10;;;;;;;30.45;13.77;;;;;;;;;;6150628;23;19997;-63
2021/11/04 11:33:47;;;;;;;26.98;12.98;;;;;;;;;;6175004;23;20143;-63
2021/11/04 11:36:15;;;;;;;;;;;;;;;;;;6174959;23;20009;-63
2021/11/04 11:39:03;;;;;;;29.98;12.73;;;;;;;;;;6172757;23;20249;-64
2021/11/04 11:41:51;;;;;;;27.83;13.52;;;;;;;;;;6175178;23;20112;-63
2021/11/04 11:44:44;;;;;;;26.50;12.45;;;;;;;;;;6153099;23;20083;-63
2021/11/04 11:47:39;;;;;;;27.67;13.20;;;;;;;;;;6176561;23;20357;-63
2021/11/04 11:50:30;;;;;;;23.80;11.82;;;;;;;;;;6161159;23;20334;-63
2021/11/04 11:53:03;;;;;;;27.75;12.52;;;;;;;;;;6175997;23;20009;-63
2021/11/04 11:55:48;;;;;;;20.50;10.63;;;;;;;;;;6177866;23;20009;-63
2021/11/04 11:58:14;;;;;;;24.60;12.32;;;;;;;;;;6176948;23;20009;-64
2021/11/04 12:00:59;;;;;;;21.67;10.80;;;;;;;;;;6176642;23;20101;-63
2021/11/04 12:03:31;;;;;;;25.85;11.98;;;;;;;;;;6150952;23;20422;-63
2021/11/04 12:05:57;;;;;;;22.80;10.93;;;;;;;;;;6177186;23;20004;-63
2021/11/04 12:08:28;;;;;;;23.90;10.82;;;;;;;;;;6176969;23;20001;-63
2021/11/04 12:10:54;;;;;;;24.75;11.38;;;;;;;;;;6178235;23;20072;-63
2021/11/04 12:13:42;;;;;;;24.50;12.10;;;;;;;;;;6174361;23;20001;-63
2021/11/04 12:16:17;;;;;;;23.42;11.32;;;;;;;;;;6175346;23;19997;-63
2021/11/04 12:19:02;;;;;;;24.15;10.63;;;;;;;;;;6175924;23;20030;-63
2021/11/04 12:21:33;;;;;;;20.48;9.93;;;;;;;;;;6178206;23;20005;-63
2021/11/04 12:24:03;;;;;;;22.35;10.32;;;;;;;;;;6176943;23;20339;-63
2021/11/04 12:26:40;;;;;;;21.35;10.70;;;;;;;;;;6176825;23;20015;-63
2021/11/04 12:29:07;;;;;;;19.50;10.02;;;;;;;;;;6150698;23;20599;-63
2021/11/04 12:31:37;;;;;;;22.08;10.68;;;;;;;;;;6175487;23;20024;-63
2021/11/04 12:34:03;;;;;;;19.45;10.00;;;;;;;;;;6178255;23;20076;-64
2021/11/04 12:36:37;;;;;;;20.25;10.27;;;;;;;;;;6176503;23;20052;-63
2021/11/04 12:39:05;;;;;;;23.45;11.13;;;;;;;;;;6149816;23;20434;-63
2021/11/04 12:41:31;;;;;;;18.23;9.45;;;;;;;;;;6172686;23;20028;-64
2021/11/04 12:44:08;;;;;;;22.88;10.70;;;;;;;;;;6174021;23;20028;-63
2021/11/04 12:46:35;;;;;;;20.52;10.13;;;;;;;;;;6177194;23;20040;-63
2021/11/04 12:49:06;;;;;;;21.95;10.30;;;;;;;;;;6173805;23;20001;-64
2021/11/04 12:51:43;;;;;;;21.27;10.40;;;;;;;;;;6175237;23;20028;-64
2021/11/04 12:54:11;;;;;;;19.88;10.50;;;;;;;;;;6172174;23;20060;-63
2021/11/04 12:56:46;;;;;;;19.67;9.80;;;;;;;;;;6177091;23;20005;-64
2021/11/04 12:59:13;;;;;;;18.95;9.90;;;;;;;;;;6151986;23;20510;-64
2021/11/04 13:02:04;;;;;;;21.42;10.35;;;;;;;;;;6181173;23;20013;-64
2021/11/04 13:04:32;;;;;;;17.83;9.52;;;;;;;;;;6181925;23;20582;-63
2021/11/04 13:06:58;;;;;;;23.77;10.80;;;;;;;;;;6177734;23;20031;-63
2021/11/04 13:09:25;;;;;;;20.52;10.00;;;;;;;;;;6178279;23;20391;-64
2021/11/04 13:12:04;;;;;;;25.33;11.23;;;;;;;;;;6153437;23;20032;-66
2021/11/04 13:14:51;;;;;;;28.75;12.63;;;;;;;;;;6181931;23;20020;-66
2021/11/04 13:17:17;;;;;;;27.08;13.02;;;;;;;;;;6178597;23;20017;-65
2021/11/04 13:20:04;;;;;;;25.88;11.82;;;;;;;;;;6152885;23;20073;-65
2021/11/04 13:22:29;;;;;;;;;;;;;;;;;;6179448;23;20435;-65
2021/11/04 13:25:00;;;;;;;24.00;9.88;;;;;;;;;;6154557;23;19908;-65
2021/11/04 13:27:26;;;;;;;23.27;9.88;;;;;;;;;;6179271;23;20419;-64
2021/11/04 13:29:54;;;;;;;19.20;9.38;;;;;;;;;;6182887;23;19997;-65
2021/11/04 13:32:20;;;;;;;22.58;10.15;;;;;;;;;;6155922;23;20045;-65
2021/11/04 13:34:47;;;;;;;22.67;10.27;;;;;;;;;;6184509;23;20001;-65
2021/11/04 13:37:21;;;;;;;21.97;9.83;;;;;;;;;;6183875;23;20060;-65
2021/11/04 13:39:48;;;;;;;18.02;8.52;;;;;;;;;;6180821;23;20356;-65
2021/11/04 13:42:28;;;;;;;21.95;9.07;;;;;;;;;;6180778;23;20056;-64
2021/11/04 13:45:06;;;;;;;15.70;7.72;;;;;;;;;;6180938;23;20331;-64
2021/11/04 13:47:36;;;;;;;17.23;7.72;;;;;;;;;;6180629;23;20005;-65
2021/11/04 13:50:03;;;;;;;11.90;5.78;;;;;;;;;;6156299;23;20004;-65
2021/11/04 13:52:30;;;;;;;;;;;;;;;;;;6180265;23;20097;-65
2021/11/04 13:54:56;;;;;;;10.32;5.00;;;;;;;;;;6171074;23;19959;-65
2021/11/04 13:57:22;;;;;;;12.90;6.10;;;;;;;;;;6181394;23;20005;-65
2021/11/04 13:59:56;;;;;;;15.57;6.38;;;;;;;;;;6178625;23;20048;-65
2021/11/04 14:02:24;;;;;;;9.15;3.85;;;;;;;;;;6177399;23;20005;-65
2021/11/04 14:04:58;;;;;;;7.18;3.92;;;;;;;;;;6147886;23;20023;-66
2021/11/04 14:07:32;;;;;;;8.20;4.03;;;;;;;;;;6178823;23;20008;-66
2021/11/04 14:10:08;;;;;;;7.05;3.10;;;;;;;;;;6178627;23;20007;-66
2021/11/04 14:12:35;;;;;;;6.35;3.17;;;;;;;;;;6177960;23;20027;-65
2021/11/04 14:15:15;;;;;;;6.15;3.03;;;;;;;;;;6177641;23;20063;-65
2021/11/04 14:17:47;;;;;;;6.80;3.40;;;;;;;;;;6151731;23;20004;-65
2021/11/04 14:20:13;;;;;;;6.57;3.50;;;;;;;;;;6176810;23;20320;-65
2021/11/04 14:22:39;;;;;;;6.30;3.72;;;;;;;;;;6175155;23;20408;-65
2021/11/04 14:25:07;;;;;;;6.40;4.10;;;;;;;;;;6176337;23;20019;-65
2021/11/04 14:27:32;;;;;;;8.82;4.10;;;;;;;;;;6177722;23;20032;-65
2021/11/04 14:29:58;;;;;;;6.53;3.95;;;;;;;;;;6149576;23;19993;-65